sensor_id;sensor_type;location;lat;lon;timestamp;P1;durP1;ratioP1;P2;durP2;ratioP2
71413;SDS011;59226;53.212;5.728;2023-08-24T00:00:08;4.80;;;1.67;;
71413;SDS011;59226;53.212;5.728;2023-08-24T00:02:33;2.63;;;0.93;;
71413;SDS011;59226;53.212;5.728;2023-08-24T00:04:59;3.70;;;1.90;;
71413;SDS011;59226;53.212;5.728;2023-08-24T00:07:25;9.23;;;2.55;;
71413;SDS011;59226;53.212;5.728;2023-08-24T00:09:52;4.93;;;2.27;;
71413;SDS011;59226;53.212;5.728;2023-08-24T00:12:17;5.10;;;2.42;;
71413;SDS011;59226;53.212;5.728;2023-08-24T00:14:42;3.97;;;1.70;;
71413;SDS011;59226;53.212;5.728;2023-08-24T00:17:08;4.13;;;1.73;;
71413;SDS011;59226;53.212;5.728;2023-08-24T00:19:33;4.17;;;1.93;;
71413;SDS011;59226;53.212;5.728;2023-08-24T00:21:58;3.57;;;2.07;;
71413;SDS011;59226;53.212;5.728;2023-08-24T00:24:23;4.53;;;1.80;;
71413;SDS011;59226;53.212;5.728;2023-08-24T00:26:49;4.88;;;2.45;;
71413;SDS011;59226;53.212;5.728;2023-08-24T00:29:15;3.07;;;1.87;;
71413;SDS011;59226;53.212;5.728;2023-08-24T00:31:40;3.50;;;1.73;;
71413;SDS011;59226;53.212;5.728;2023-08-24T00:34:06;5.53;;;2.33;;
71413;SDS011;59226;53.212;5.728;2023-08-24T00:36:31;4.30;;;1.90;;
71413;SDS011;59226;53.212;5.728;2023-08-24T00:38:56;5.63;;;1.73;;
71413;SDS011;59226;53.212;5.728;2023-08-24T00:41:21;4.50;;;1.73;;
71413;SDS011;59226;53.212;5.728;2023-08-24T00:43:47;4.30;;;2.08;;
71413;SDS011;59226;53.212;5.728;2023-08-24T00:46:14;4.65;;;2.00;;
71413;SDS011;59226;53.212;5.728;2023-08-24T00:48:40;2.53;;;1.23;;
71413;SDS011;59226;53.212;5.728;2023-08-24T00:51:05;5.60;;;2.10;;
71413;SDS011;59226;53.212;5.728;2023-08-24T00:53:30;4.63;;;1.80;;
71413;SDS011;59226;53.212;5.728;2023-08-24T00:55:56;3.10;;;1.70;;
71413;SDS011;59226;53.212;5.728;2023-08-24T00:58:21;4.15;;;2.00;;
71413;SDS011;59226;53.212;5.728;2023-08-24T01:00:53;3.37;;;1.57;;
71413;SDS011;59226;53.212;5.728;2023-08-24T01:03:19;4.00;;;1.90;;
71413;SDS011;59226;53.212;5.728;2023-08-24T01:05:44;5.73;;;2.07;;
71413;SDS011;59226;53.212;5.728;2023-08-24T01:08:12;3.20;;;1.42;;
71413;SDS011;59226;53.212;5.728;2023-08-24T01:10:47;4.07;;;2.23;;
71413;SDS011;59226;53.212;5.728;2023-08-24T01:13:14;3.53;;;1.73;;
71413;SDS011;59226;53.212;5.728;2023-08-24T01:18:12;5.82;;;2.47;;
71413;SDS011;59226;53.212;5.728;2023-08-24T01:20:40;4.88;;;1.88;;
71413;SDS011;59226;53.212;5.728;2023-08-24T01:23:23;4.45;;;2.22;;
71413;SDS011;59226;53.212;5.728;2023-08-24T01:25:52;4.23;;;1.93;;
71413;SDS011;59226;53.212;5.728;2023-08-24T01:28:18;4.35;;;2.58;;
71413;SDS011;59226;53.212;5.728;2023-08-24T01:30:45;3.53;;;1.50;;
71413;SDS011;59226;53.212;5.728;2023-08-24T01:33:10;12.20;;;2.33;;
71413;SDS011;59226;53.212;5.728;2023-08-24T01:35:37;6.45;;;1.83;;
71413;SDS011;59226;53.212;5.728;2023-08-24T01:38:02;3.83;;;1.57;;
71413;SDS011;59226;53.212;5.728;2023-08-24T01:43:02;3.83;;;1.95;;
71413;SDS011;59226;53.212;5.728;2023-08-24T01:45:29;3.13;;;1.13;;
71413;SDS011;59226;53.212;5.728;2023-08-24T01:47:54;3.03;;;1.63;;
71413;SDS011;59226;53.212;5.728;2023-08-24T01:50:19;2.15;;;1.02;;
71413;SDS011;59226;53.212;5.728;2023-08-24T01:52:45;4.53;;;1.57;;
71413;SDS011;59226;53.212;5.728;2023-08-24T01:55:10;3.60;;;1.57;;
71413;SDS011;59226;53.212;5.728;2023-08-24T01:57:36;2.92;;;1.60;;
71413;SDS011;59226;53.212;5.728;2023-08-24T02:00:02;4.50;;;1.43;;
71413;SDS011;59226;53.212;5.728;2023-08-24T02:02:31;7.63;;;1.27;;
71413;SDS011;59226;53.212;5.728;2023-08-24T02:04:58;3.47;;;1.40;;
71413;SDS011;59226;53.212;5.728;2023-08-24T02:07:23;3.90;;;2.03;;
71413;SDS011;59226;53.212;5.728;2023-08-24T02:09:48;2.03;;;0.90;;
71413;SDS011;59226;53.212;5.728;2023-08-24T02:12:13;2.93;;;1.40;;
71413;SDS011;59226;53.212;5.728;2023-08-24T02:14:38;2.30;;;1.07;;
71413;SDS011;59226;53.212;5.728;2023-08-24T02:17:04;6.97;;;1.83;;
71413;SDS011;59226;53.212;5.728;2023-08-24T02:19:29;6.93;;;1.97;;
71413;SDS011;59226;53.212;5.728;2023-08-24T02:21:54;4.40;;;1.90;;
71413;SDS011;59226;53.212;5.728;2023-08-24T02:24:19;2.77;;;1.10;;
71413;SDS011;59226;53.212;5.728;2023-08-24T02:26:45;3.67;;;1.70;;
71413;SDS011;59226;53.212;5.728;2023-08-24T02:29:10;3.30;;;1.70;;
71413;SDS011;59226;53.212;5.728;2023-08-24T02:31:35;7.87;;;1.53;;
71413;SDS011;59226;53.212;5.728;2023-08-24T02:34:01;4.10;;;1.93;;
71413;SDS011;59226;53.212;5.728;2023-08-24T02:36:27;4.35;;;1.90;;
71413;SDS011;59226;53.212;5.728;2023-08-24T02:38:53;5.80;;;1.60;;
71413;SDS011;59226;53.212;5.728;2023-08-24T02:41:18;3.37;;;2.07;;
71413;SDS011;59226;53.212;5.728;2023-08-24T02:43:44;4.63;;;1.30;;
71413;SDS011;59226;53.212;5.728;2023-08-24T02:46:09;5.30;;;1.37;;
71413;SDS011;59226;53.212;5.728;2023-08-24T02:48:35;4.45;;;1.55;;
71413;SDS011;59226;53.212;5.728;2023-08-24T02:51:01;2.57;;;1.37;;
71413;SDS011;59226;53.212;5.728;2023-08-24T02:53:28;2.88;;;1.30;;
71413;SDS011;59226;53.212;5.728;2023-08-24T02:55:53;3.93;;;1.70;;
71413;SDS011;59226;53.212;5.728;2023-08-24T02:58:18;5.17;;;1.60;;
71413;SDS011;59226;53.212;5.728;2023-08-24T03:00:44;4.03;;;1.37;;
71413;SDS011;59226;53.212;5.728;2023-08-24T03:03:09;3.23;;;1.60;;
71413;SDS011;59226;53.212;5.728;2023-08-24T03:05:34;3.20;;;1.20;;
71413;SDS011;59226;53.212;5.728;2023-08-24T03:08:00;6.00;;;1.95;;
71413;SDS011;59226;53.212;5.728;2023-08-24T03:10:25;2.37;;;1.50;;
71413;SDS011;59226;53.212;5.728;2023-08-24T03:12:51;4.80;;;1.83;;
71413;SDS011;59226;53.212;5.728;2023-08-24T03:15:16;4.27;;;1.90;;
71413;SDS011;59226;53.212;5.728;2023-08-24T03:17:41;2.37;;;1.23;;
71413;SDS011;59226;53.212;5.728;2023-08-24T03:20:07;4.80;;;1.40;;
71413;SDS011;59226;53.212;5.728;2023-08-24T03:22:32;3.87;;;1.67;;
71413;SDS011;59226;53.212;5.728;2023-08-24T03:24:58;3.17;;;1.40;;
71413;SDS011;59226;53.212;5.728;2023-08-24T03:27:23;4.32;;;1.52;;
71413;SDS011;59226;53.212;5.728;2023-08-24T03:29:48;3.03;;;1.67;;
71413;SDS011;59226;53.212;5.728;2023-08-24T03:32:13;4.20;;;2.07;;
71413;SDS011;59226;53.212;5.728;2023-08-24T03:34:39;5.30;;;1.70;;
71413;SDS011;59226;53.212;5.728;2023-08-24T03:37:05;2.53;;;1.10;;
71413;SDS011;59226;53.212;5.728;2023-08-24T03:39:30;3.27;;;1.50;;
71413;SDS011;59226;53.212;5.728;2023-08-24T03:41:55;5.60;;;2.30;;
71413;SDS011;59226;53.212;5.728;2023-08-24T03:44:20;5.20;;;1.90;;
71413;SDS011;59226;53.212;5.728;2023-08-24T03:46:46;7.53;;;2.07;;
71413;SDS011;59226;53.212;5.728;2023-08-24T03:49:11;4.77;;;1.77;;
71413;SDS011;59226;53.212;5.728;2023-08-24T03:51:37;6.43;;;2.47;;
71413;SDS011;59226;53.212;5.728;2023-08-24T03:54:02;9.23;;;1.70;;
71413;SDS011;59226;53.212;5.728;2023-08-24T03:56:28;4.50;;;1.73;;
71413;SDS011;59226;53.212;5.728;2023-08-24T03:58:53;6.33;;;1.63;;
71413;SDS011;59226;53.212;5.728;2023-08-24T04:01:18;5.37;;;2.20;;
71413;SDS011;59226;53.212;5.728;2023-08-24T04:03:43;3.00;;;1.40;;
71413;SDS011;59226;53.212;5.728;2023-08-24T04:06:09;2.97;;;1.47;;
71413;SDS011;59226;53.212;5.728;2023-08-24T04:08:34;2.37;;;1.17;;
71413;SDS011;59226;53.212;5.728;2023-08-24T04:10:59;4.20;;;2.00;;
71413;SDS011;59226;53.212;5.728;2023-08-24T04:13:25;8.97;;;2.40;;
71413;SDS011;59226;53.212;5.728;2023-08-24T04:15:50;13.93;;;2.43;;
71413;SDS011;59226;53.212;5.728;2023-08-24T04:18:15;5.10;;;1.43;;
71413;SDS011;59226;53.212;5.728;2023-08-24T04:20:41;4.40;;;1.73;;
71413;SDS011;59226;53.212;5.728;2023-08-24T04:23:06;4.40;;;1.90;;
71413;SDS011;59226;53.212;5.728;2023-08-24T04:25:31;5.33;;;1.40;;
71413;SDS011;59226;53.212;5.728;2023-08-24T04:27:56;4.70;;;2.50;;
71413;SDS011;59226;53.212;5.728;2023-08-24T04:30:21;3.63;;;1.57;;
71413;SDS011;59226;53.212;5.728;2023-08-24T04:32:47;5.67;;;1.87;;
71413;SDS011;59226;53.212;5.728;2023-08-24T04:35:12;3.53;;;1.70;;
71413;SDS011;59226;53.212;5.728;2023-08-24T04:37:37;2.47;;;1.50;;
71413;SDS011;59226;53.212;5.728;2023-08-24T04:40:03;5.50;;;1.97;;
71413;SDS011;59226;53.212;5.728;2023-08-24T04:42:29;3.25;;;1.33;;
71413;SDS011;59226;53.212;5.728;2023-08-24T04:44:54;3.83;;;1.40;;
71413;SDS011;59226;53.212;5.728;2023-08-24T04:47:20;4.33;;;1.83;;
71413;SDS011;59226;53.212;5.728;2023-08-24T04:49:45;9.03;;;1.60;;
71413;SDS011;59226;53.212;5.728;2023-08-24T04:52:10;8.83;;;2.43;;
71413;SDS011;59226;53.212;5.728;2023-08-24T04:54:35;2.00;;;1.10;;
71413;SDS011;59226;53.212;5.728;2023-08-24T04:57:00;4.93;;;2.33;;
71413;SDS011;59226;53.212;5.728;2023-08-24T04:59:26;2.97;;;1.40;;
71413;SDS011;59226;53.212;5.728;2023-08-24T05:01:51;5.77;;;2.67;;
71413;SDS011;59226;53.212;5.728;2023-08-24T05:04:16;4.53;;;1.53;;
71413;SDS011;59226;53.212;5.728;2023-08-24T05:06:41;4.00;;;1.77;;
71413;SDS011;59226;53.212;5.728;2023-08-24T05:09:07;3.50;;;2.10;;
71413;SDS011;59226;53.212;5.728;2023-08-24T05:11:33;5.60;;;1.60;;
71413;SDS011;59226;53.212;5.728;2023-08-24T05:13:58;2.70;;;1.53;;
71413;SDS011;59226;53.212;5.728;2023-08-24T05:16:23;5.10;;;2.33;;
71413;SDS011;59226;53.212;5.728;2023-08-24T05:18:49;4.05;;;1.35;;
71413;SDS011;59226;53.212;5.728;2023-08-24T05:21:14;4.50;;;1.97;;
71413;SDS011;59226;53.212;5.728;2023-08-24T05:23:39;3.77;;;1.73;;
71413;SDS011;59226;53.212;5.728;2023-08-24T05:26:05;2.03;;;1.00;;
71413;SDS011;59226;53.212;5.728;2023-08-24T05:28:30;5.27;;;1.67;;
71413;SDS011;59226;53.212;5.728;2023-08-24T05:30:56;3.42;;;1.42;;
71413;SDS011;59226;53.212;5.728;2023-08-24T05:33:22;2.87;;;1.43;;
71413;SDS011;59226;53.212;5.728;2023-08-24T05:35:50;1.60;;;0.88;;
71413;SDS011;59226;53.212;5.728;2023-08-24T05:38:16;3.72;;;1.73;;
71413;SDS011;59226;53.212;5.728;2023-08-24T05:40:42;3.17;;;1.10;;
71413;SDS011;59226;53.212;5.728;2023-08-24T05:43:08;3.58;;;1.50;;
71413;SDS011;59226;53.212;5.728;2023-08-24T05:45:33;2.50;;;1.00;;
71413;SDS011;59226;53.212;5.728;2023-08-24T05:47:58;3.87;;;1.90;;
71413;SDS011;59226;53.212;5.728;2023-08-24T05:50:24;2.90;;;1.43;;
71413;SDS011;59226;53.212;5.728;2023-08-24T05:52:49;3.65;;;1.42;;
71413;SDS011;59226;53.212;5.728;2023-08-24T05:55:14;3.97;;;1.70;;
71413;SDS011;59226;53.212;5.728;2023-08-24T05:57:41;9.27;;;2.40;;
71413;SDS011;59226;53.212;5.728;2023-08-24T06:00:06;4.43;;;1.10;;
71413;SDS011;59226;53.212;5.728;2023-08-24T06:02:38;4.13;;;1.10;;
71413;SDS011;59226;53.212;5.728;2023-08-24T06:05:04;1.63;;;0.98;;
71413;SDS011;59226;53.212;5.728;2023-08-24T06:07:30;3.20;;;1.23;;
71413;SDS011;59226;53.212;5.728;2023-08-24T06:09:58;3.53;;;1.60;;
71413;SDS011;59226;53.212;5.728;2023-08-24T06:12:23;6.22;;;1.40;;
71413;SDS011;59226;53.212;5.728;2023-08-24T06:14:48;4.87;;;1.33;;
71413;SDS011;59226;53.212;5.728;2023-08-24T06:17:14;3.37;;;1.60;;
71413;SDS011;59226;53.212;5.728;2023-08-24T06:19:39;5.43;;;1.30;;
71413;SDS011;59226;53.212;5.728;2023-08-24T06:22:04;6.87;;;1.17;;
71413;SDS011;59226;53.212;5.728;2023-08-24T06:24:30;2.93;;;1.10;;
71413;SDS011;59226;53.212;5.728;2023-08-24T06:26:55;2.77;;;1.00;;
71413;SDS011;59226;53.212;5.728;2023-08-24T06:29:20;1.87;;;0.87;;
71413;SDS011;59226;53.212;5.728;2023-08-24T06:31:46;4.87;;;1.43;;
71413;SDS011;59226;53.212;5.728;2023-08-24T06:34:11;3.20;;;1.20;;
71413;SDS011;59226;53.212;5.728;2023-08-24T06:36:36;7.07;;;1.87;;
71413;SDS011;59226;53.212;5.728;2023-08-24T06:39:02;3.60;;;1.17;;
71413;SDS011;59226;53.212;5.728;2023-08-24T06:41:32;1.83;;;1.08;;
71413;SDS011;59226;53.212;5.728;2023-08-24T06:43:57;2.45;;;1.15;;
71413;SDS011;59226;53.212;5.728;2023-08-24T06:46:23;4.32;;;1.10;;
71413;SDS011;59226;53.212;5.728;2023-08-24T06:48:49;3.07;;;1.33;;
71413;SDS011;59226;53.212;5.728;2023-08-24T06:51:14;3.27;;;1.00;;
71413;SDS011;59226;53.212;5.728;2023-08-24T06:53:39;1.33;;;0.70;;
71413;SDS011;59226;53.212;5.728;2023-08-24T06:56:04;4.20;;;1.10;;
71413;SDS011;59226;53.212;5.728;2023-08-24T06:58:30;3.53;;;1.73;;
71413;SDS011;59226;53.212;5.728;2023-08-24T07:00:55;1.87;;;0.87;;
71413;SDS011;59226;53.212;5.728;2023-08-24T07:03:21;4.13;;;1.25;;
71413;SDS011;59226;53.212;5.728;2023-08-24T07:05:46;2.33;;;0.93;;
71413;SDS011;59226;53.212;5.728;2023-08-24T07:08:12;3.60;;;1.80;;
71413;SDS011;59226;53.212;5.728;2023-08-24T07:10:37;1.92;;;0.80;;
71413;SDS011;59226;53.212;5.728;2023-08-24T07:13:04;2.23;;;1.20;;
71413;SDS011;59226;53.212;5.728;2023-08-24T07:15:30;7.07;;;1.08;;
71413;SDS011;59226;53.212;5.728;2023-08-24T07:17:55;2.23;;;1.20;;
71413;SDS011;59226;53.212;5.728;2023-08-24T07:20:20;2.60;;;1.10;;
71413;SDS011;59226;53.212;5.728;2023-08-24T07:22:45;3.17;;;1.53;;
71413;SDS011;59226;53.212;5.728;2023-08-24T07:25:11;6.67;;;1.40;;
71413;SDS011;59226;53.212;5.728;2023-08-24T07:27:37;2.15;;;0.98;;
71413;SDS011;59226;53.212;5.728;2023-08-24T07:30:02;1.80;;;0.97;;
71413;SDS011;59226;53.212;5.728;2023-08-24T07:32:31;2.40;;;1.10;;
71413;SDS011;59226;53.212;5.728;2023-08-24T07:34:56;2.95;;;1.35;;
71413;SDS011;59226;53.212;5.728;2023-08-24T07:37:23;1.77;;;0.90;;
71413;SDS011;59226;53.212;5.728;2023-08-24T07:39:49;1.80;;;0.77;;
71413;SDS011;59226;53.212;5.728;2023-08-24T07:42:14;2.60;;;0.87;;
71413;SDS011;59226;53.212;5.728;2023-08-24T07:44:39;1.43;;;0.63;;
71413;SDS011;59226;53.212;5.728;2023-08-24T07:47:04;1.87;;;0.83;;
71413;SDS011;59226;53.212;5.728;2023-08-24T07:49:30;2.53;;;1.20;;
71413;SDS011;59226;53.212;5.728;2023-08-24T07:51:56;1.85;;;0.70;;
71413;SDS011;59226;53.212;5.728;2023-08-24T07:54:23;1.88;;;0.88;;
71413;SDS011;59226;53.212;5.728;2023-08-24T07:56:48;1.03;;;0.63;;
71413;SDS011;59226;53.212;5.728;2023-08-24T07:59:14;2.40;;;0.90;;
71413;SDS011;59226;53.212;5.728;2023-08-24T08:01:39;2.67;;;0.83;;
71413;SDS011;59226;53.212;5.728;2023-08-24T08:04:04;2.03;;;0.90;;
71413;SDS011;59226;53.212;5.728;2023-08-24T08:06:29;1.80;;;0.80;;
71413;SDS011;59226;53.212;5.728;2023-08-24T08:08:55;1.70;;;0.97;;
71413;SDS011;59226;53.212;5.728;2023-08-24T08:11:21;1.15;;;0.80;;
71413;SDS011;59226;53.212;5.728;2023-08-24T08:13:46;1.43;;;0.83;;
71413;SDS011;59226;53.212;5.728;2023-08-24T08:16:12;2.47;;;0.90;;
71413;SDS011;59226;53.212;5.728;2023-08-24T08:18:38;2.00;;;0.93;;
71413;SDS011;59226;53.212;5.728;2023-08-24T08:21:09;2.10;;;0.73;;
71413;SDS011;59226;53.212;5.728;2023-08-24T08:23:36;3.20;;;1.05;;
71413;SDS011;59226;53.212;5.728;2023-08-24T08:26:04;2.27;;;1.00;;
71413;SDS011;59226;53.212;5.728;2023-08-24T08:28:29;2.23;;;0.87;;
71413;SDS011;59226;53.212;5.728;2023-08-24T08:30:54;2.17;;;1.07;;
71413;SDS011;59226;53.212;5.728;2023-08-24T08:33:20;3.23;;;1.03;;
71413;SDS011;59226;53.212;5.728;2023-08-24T08:35:46;2.27;;;1.17;;
71413;SDS011;59226;53.212;5.728;2023-08-24T08:38:12;3.22;;;1.10;;
71413;SDS011;59226;53.212;5.728;2023-08-24T08:40:37;4.70;;;1.13;;
71413;SDS011;59226;53.212;5.728;2023-08-24T08:43:02;2.57;;;1.17;;
71413;SDS011;59226;53.212;5.728;2023-08-24T08:45:28;2.87;;;1.40;;
71413;SDS011;59226;53.212;5.728;2023-08-24T08:47:57;5.07;;;1.63;;
71413;SDS011;59226;53.212;5.728;2023-08-24T08:50:24;5.18;;;1.83;;
71413;SDS011;59226;53.212;5.728;2023-08-24T08:52:49;2.97;;;1.60;;
71413;SDS011;59226;53.212;5.728;2023-08-24T08:55:14;3.53;;;1.50;;
71413;SDS011;59226;53.212;5.728;2023-08-24T08:57:40;7.43;;;1.60;;
71413;SDS011;59226;53.212;5.728;2023-08-24T09:00:07;4.38;;;2.00;;
71413;SDS011;59226;53.212;5.728;2023-08-24T09:02:34;4.90;;;2.22;;
71413;SDS011;59226;53.212;5.728;2023-08-24T09:05:00;4.07;;;2.00;;
71413;SDS011;59226;53.212;5.728;2023-08-24T09:07:25;4.23;;;1.37;;
71413;SDS011;59226;53.212;5.728;2023-08-24T09:09:50;7.80;;;1.93;;
71413;SDS011;59226;53.212;5.728;2023-08-24T09:12:16;3.70;;;1.90;;
71413;SDS011;59226;53.212;5.728;2023-08-24T09:14:41;3.87;;;1.80;;
71413;SDS011;59226;53.212;5.728;2023-08-24T09:17:06;4.77;;;1.90;;
71413;SDS011;59226;53.212;5.728;2023-08-24T09:19:32;4.27;;;1.73;;
71413;SDS011;59226;53.212;5.728;2023-08-24T09:21:58;5.20;;;2.10;;
71413;SDS011;59226;53.212;5.728;2023-08-24T09:24:30;3.63;;;1.40;;
71413;SDS011;59226;53.212;5.728;2023-08-24T09:26:56;9.23;;;2.42;;
71413;SDS011;59226;53.212;5.728;2023-08-24T09:29:21;3.43;;;1.57;;
71413;SDS011;59226;53.212;5.728;2023-08-24T09:31:46;3.63;;;1.70;;
71413;SDS011;59226;53.212;5.728;2023-08-24T09:34:14;6.97;;;1.88;;
71413;SDS011;59226;53.212;5.728;2023-08-24T09:36:44;6.65;;;1.80;;
71413;SDS011;59226;53.212;5.728;2023-08-24T09:39:09;3.63;;;1.67;;
71413;SDS011;59226;53.212;5.728;2023-08-24T09:41:45;6.30;;;1.93;;
71413;SDS011;59226;53.212;5.728;2023-08-24T09:44:10;3.47;;;1.52;;
71413;SDS011;59226;53.212;5.728;2023-08-24T09:46:37;4.22;;;2.05;;
71413;SDS011;59226;53.212;5.728;2023-08-24T09:49:11;5.05;;;2.03;;
71413;SDS011;59226;53.212;5.728;2023-08-24T09:51:37;4.53;;;2.00;;
71413;SDS011;59226;53.212;5.728;2023-08-24T09:54:06;4.10;;;1.55;;
71413;SDS011;59226;53.212;5.728;2023-08-24T09:56:34;6.53;;;1.77;;
71413;SDS011;59226;53.212;5.728;2023-08-24T09:59:00;4.10;;;1.50;;
71413;SDS011;59226;53.212;5.728;2023-08-24T10:01:28;4.82;;;1.75;;
71413;SDS011;59226;53.212;5.728;2023-08-24T10:03:54;5.63;;;1.98;;
71413;SDS011;59226;53.212;5.728;2023-08-24T10:06:21;4.63;;;1.60;;
71413;SDS011;59226;53.212;5.728;2023-08-24T10:08:50;4.80;;;1.77;;
71413;SDS011;59226;53.212;5.728;2023-08-24T10:11:19;3.55;;;1.73;;
71413;SDS011;59226;53.212;5.728;2023-08-24T10:16:19;4.82;;;1.75;;
71413;SDS011;59226;53.212;5.728;2023-08-24T10:18:44;5.53;;;2.13;;
71413;SDS011;59226;53.212;5.728;2023-08-24T10:21:10;4.95;;;1.52;;
71413;SDS011;59226;53.212;5.728;2023-08-24T10:23:36;5.47;;;2.27;;
71413;SDS011;59226;53.212;5.728;2023-08-24T10:26:02;5.37;;;2.17;;
71413;SDS011;59226;53.212;5.728;2023-08-24T10:28:27;3.50;;;1.60;;
71413;SDS011;59226;53.212;5.728;2023-08-24T10:30:53;4.53;;;1.80;;
71413;SDS011;59226;53.212;5.728;2023-08-24T10:33:19;5.45;;;1.73;;
71413;SDS011;59226;53.212;5.728;2023-08-24T10:35:46;4.57;;;1.50;;
71413;SDS011;59226;53.212;5.728;2023-08-24T10:38:28;5.25;;;2.45;;
71413;SDS011;59226;53.212;5.728;2023-08-24T10:40:53;7.60;;;2.42;;
71413;SDS011;59226;53.212;5.728;2023-08-24T10:43:19;3.30;;;1.73;;
71413;SDS011;59226;53.212;5.728;2023-08-24T10:46:00;6.03;;;2.70;;
71413;SDS011;59226;53.212;5.728;2023-08-24T10:53:51;4.18;;;1.70;;
71413;SDS011;59226;53.212;5.728;2023-08-24T10:56:17;11.00;;;2.53;;
71413;SDS011;59226;53.212;5.728;2023-08-24T10:58:43;6.15;;;2.08;;
71413;SDS011;59226;53.212;5.728;2023-08-24T11:01:16;8.63;;;2.00;;
71413;SDS011;59226;53.212;5.728;2023-08-24T11:03:50;4.35;;;2.28;;
71413;SDS011;59226;53.212;5.728;2023-08-24T11:06:21;7.73;;;2.47;;
71413;SDS011;59226;53.212;5.728;2023-08-24T11:08:47;6.90;;;2.22;;
71413;SDS011;59226;53.212;5.728;2023-08-24T11:11:22;6.13;;;2.55;;
71413;SDS011;59226;53.212;5.728;2023-08-24T11:16:41;6.63;;;3.65;;
71413;SDS011;59226;53.212;5.728;2023-08-24T11:19:07;16.67;;;3.43;;
71413;SDS011;59226;53.212;5.728;2023-08-24T11:21:33;4.57;;;2.00;;
71413;SDS011;59226;53.212;5.728;2023-08-24T11:23:59;6.40;;;2.65;;
71413;SDS011;59226;53.212;5.728;2023-08-24T11:26:25;5.90;;;2.57;;
71413;SDS011;59226;53.212;5.728;2023-08-24T11:28:53;6.68;;;2.58;;
71413;SDS011;59226;53.212;5.728;2023-08-24T11:31:18;5.10;;;1.77;;
71413;SDS011;59226;53.212;5.728;2023-08-24T11:33:43;5.13;;;2.57;;
71413;SDS011;59226;53.212;5.728;2023-08-24T11:36:09;7.00;;;3.47;;
71413;SDS011;59226;53.212;5.728;2023-08-24T11:38:37;6.47;;;3.23;;
71413;SDS011;59226;53.212;5.728;2023-08-24T11:41:16;4.93;;;2.37;;
71413;SDS011;59226;53.212;5.728;2023-08-24T11:43:45;4.47;;;2.40;;
71413;SDS011;59226;53.212;5.728;2023-08-24T11:46:10;5.85;;;2.17;;
71413;SDS011;59226;53.212;5.728;2023-08-24T11:48:36;10.10;;;3.40;;
71413;SDS011;59226;53.212;5.728;2023-08-24T11:51:06;5.95;;;2.60;;
71413;SDS011;59226;53.212;5.728;2023-08-24T11:53:32;11.02;;;3.35;;
71413;SDS011;59226;53.212;5.728;2023-08-24T11:56:02;9.50;;;3.45;;
71413;SDS011;59226;53.212;5.728;2023-08-24T11:58:27;5.70;;;2.70;;
71413;SDS011;59226;53.212;5.728;2023-08-24T12:00:52;7.23;;;2.63;;
71413;SDS011;59226;53.212;5.728;2023-08-24T12:03:17;5.43;;;2.50;;
71413;SDS011;59226;53.212;5.728;2023-08-24T12:05:43;3.20;;;1.70;;
71413;SDS011;59226;53.212;5.728;2023-08-24T12:08:10;7.90;;;2.90;;
71413;SDS011;59226;53.212;5.728;2023-08-24T12:10:40;7.27;;;3.13;;
71413;SDS011;59226;53.212;5.728;2023-08-24T12:13:06;5.13;;;1.90;;
71413;SDS011;59226;53.212;5.728;2023-08-24T12:15:34;7.50;;;2.60;;
71413;SDS011;59226;53.212;5.728;2023-08-24T12:18:11;8.20;;;2.43;;
71413;SDS011;59226;53.212;5.728;2023-08-24T12:20:37;6.10;;;2.95;;
71413;SDS011;59226;53.212;5.728;2023-08-24T12:23:02;3.88;;;2.15;;
71413;SDS011;59226;53.212;5.728;2023-08-24T12:25:27;6.73;;;2.10;;
71413;SDS011;59226;53.212;5.728;2023-08-24T12:28:07;5.80;;;2.47;;
71413;SDS011;59226;53.212;5.728;2023-08-24T12:30:33;8.27;;;3.30;;
71413;SDS011;59226;53.212;5.728;2023-08-24T12:33:07;7.00;;;3.22;;
71413;SDS011;59226;53.212;5.728;2023-08-24T12:35:33;6.97;;;3.23;;
71413;SDS011;59226;53.212;5.728;2023-08-24T12:37:58;6.23;;;2.70;;
71413;SDS011;59226;53.212;5.728;2023-08-24T12:40:23;6.50;;;3.03;;
71413;SDS011;59226;53.212;5.728;2023-08-24T12:42:50;5.70;;;2.97;;
71413;SDS011;59226;53.212;5.728;2023-08-24T12:45:15;8.07;;;2.87;;
71413;SDS011;59226;53.212;5.728;2023-08-24T12:47:40;6.73;;;3.83;;
71413;SDS011;59226;53.212;5.728;2023-08-24T12:50:06;5.40;;;2.43;;
71413;SDS011;59226;53.212;5.728;2023-08-24T12:52:31;7.23;;;2.60;;
71413;SDS011;59226;53.212;5.728;2023-08-24T12:54:57;10.23;;;3.10;;
71413;SDS011;59226;53.212;5.728;2023-08-24T12:57:22;6.77;;;2.60;;
71413;SDS011;59226;53.212;5.728;2023-08-24T12:59:47;7.53;;;4.07;;
71413;SDS011;59226;53.212;5.728;2023-08-24T13:02:12;7.90;;;3.60;;
71413;SDS011;59226;53.212;5.728;2023-08-24T13:04:38;6.10;;;3.20;;
71413;SDS011;59226;53.212;5.728;2023-08-24T13:07:03;6.23;;;3.70;;
71413;SDS011;59226;53.212;5.728;2023-08-24T13:09:29;9.20;;;3.20;;
71413;SDS011;59226;53.212;5.728;2023-08-24T13:11:54;5.07;;;2.77;;
71413;SDS011;59226;53.212;5.728;2023-08-24T13:14:19;9.47;;;3.27;;
71413;SDS011;59226;53.212;5.728;2023-08-24T13:16:45;8.07;;;2.55;;
71413;SDS011;59226;53.212;5.728;2023-08-24T13:19:11;6.40;;;3.33;;
71413;SDS011;59226;53.212;5.728;2023-08-24T13:21:36;8.03;;;4.77;;
71413;SDS011;59226;53.212;5.728;2023-08-24T13:24:01;8.97;;;3.50;;
71413;SDS011;59226;53.212;5.728;2023-08-24T13:26:26;5.27;;;3.23;;
71413;SDS011;59226;53.212;5.728;2023-08-24T13:28:52;4.50;;;2.87;;
71413;SDS011;59226;53.212;5.728;2023-08-24T13:31:17;9.17;;;3.70;;
71413;SDS011;59226;53.212;5.728;2023-08-24T13:33:42;4.25;;;2.63;;
71413;SDS011;59226;53.212;5.728;2023-08-24T13:36:07;5.77;;;3.00;;
71413;SDS011;59226;53.212;5.728;2023-08-24T13:38:33;4.33;;;2.10;;
71413;SDS011;59226;53.212;5.728;2023-08-24T13:40:58;6.67;;;3.13;;
71413;SDS011;59226;53.212;5.728;2023-08-24T13:43:23;5.30;;;2.57;;
71413;SDS011;59226;53.212;5.728;2023-08-24T13:45:48;6.03;;;3.10;;
71413;SDS011;59226;53.212;5.728;2023-08-24T13:48:14;6.33;;;2.03;;
71413;SDS011;59226;53.212;5.728;2023-08-24T13:50:40;5.43;;;2.70;;
71413;SDS011;59226;53.212;5.728;2023-08-24T13:53:06;5.28;;;2.63;;
71413;SDS011;59226;53.212;5.728;2023-08-24T13:55:31;5.17;;;2.57;;
71413;SDS011;59226;53.212;5.728;2023-08-24T13:57:57;4.35;;;2.72;;
71413;SDS011;59226;53.212;5.728;2023-08-24T14:00:22;5.80;;;3.17;;
71413;SDS011;59226;53.212;5.728;2023-08-24T14:02:48;5.53;;;2.60;;
71413;SDS011;59226;53.212;5.728;2023-08-24T14:05:13;5.47;;;3.00;;
71413;SDS011;59226;53.212;5.728;2023-08-24T14:07:39;5.93;;;2.13;;
71413;SDS011;59226;53.212;5.728;2023-08-24T14:10:04;4.07;;;2.23;;
71413;SDS011;59226;53.212;5.728;2023-08-24T14:12:29;6.13;;;2.37;;
71413;SDS011;59226;53.212;5.728;2023-08-24T14:14:55;3.70;;;2.03;;
71413;SDS011;59226;53.212;5.728;2023-08-24T14:17:20;6.23;;;3.13;;
71413;SDS011;59226;53.212;5.728;2023-08-24T14:19:45;4.57;;;2.40;;
71413;SDS011;59226;53.212;5.728;2023-08-24T14:22:11;5.23;;;3.00;;
71413;SDS011;59226;53.212;5.728;2023-08-24T14:24:36;4.93;;;2.70;;
71413;SDS011;59226;53.212;5.728;2023-08-24T14:27:01;3.47;;;1.93;;
71413;SDS011;59226;53.212;5.728;2023-08-24T14:29:26;22.43;;;2.90;;
71413;SDS011;59226;53.212;5.728;2023-08-24T14:31:52;7.43;;;3.23;;
71413;SDS011;59226;53.212;5.728;2023-08-24T14:34:17;6.20;;;2.80;;
71413;SDS011;59226;53.212;5.728;2023-08-24T14:36:42;5.90;;;3.67;;
71413;SDS011;59226;53.212;5.728;2023-08-24T14:39:08;4.90;;;3.07;;
71413;SDS011;59226;53.212;5.728;2023-08-24T14:41:33;5.63;;;2.47;;
71413;SDS011;59226;53.212;5.728;2023-08-24T14:43:58;7.27;;;2.80;;
71413;SDS011;59226;53.212;5.728;2023-08-24T14:46:23;6.93;;;3.00;;
71413;SDS011;59226;53.212;5.728;2023-08-24T14:48:49;6.80;;;3.10;;
71413;SDS011;59226;53.212;5.728;2023-08-24T14:51:14;4.43;;;2.53;;
71413;SDS011;59226;53.212;5.728;2023-08-24T14:53:39;5.83;;;3.07;;
71413;SDS011;59226;53.212;5.728;2023-08-24T14:56:04;5.77;;;3.40;;